createdAt,value
2022-10-13T00:00:48.026Z,102102.06
2022-10-13T00:03:16.334Z,102113.94
2022-10-13T00:05:45.517Z,102108.66
2022-10-13T00:08:13.588Z,102118.25
2022-10-13T00:10:40.967Z,102118.13
2022-10-13T00:13:08.729Z,102124.28
2022-10-13T00:15:42.383Z,102128.56
2022-10-13T00:18:09.192Z,102125.13
2022-10-13T00:20:40.260Z,102070.84
2022-10-13T00:23:06.741Z,102115.88
2022-10-13T00:25:33.182Z,102114.75
2022-10-13T00:27:59.631Z,102116.41
2022-10-13T00:30:26.190Z,102110.03
2022-10-13T00:32:52.599Z,102107.13
2022-10-13T00:35:19.011Z,102106.91
2022-10-13T00:37:46.125Z,102094.47
2022-10-13T00:40:12.590Z,102096.06
2022-10-13T00:42:41.748Z,102095.50
2022-10-13T00:45:22.707Z,102103.78
2022-10-13T00:47:55.795Z,102097.47
2022-10-13T00:50:34.043Z,102093.75
2022-10-13T00:53:01.443Z,102114.50
2022-10-13T00:55:31.258Z,102108.19
2022-10-13T00:58:05.184Z,102114.16
2022-10-13T01:00:33.457Z,102104.53
2022-10-13T01:03:01.117Z,102108.84
2022-10-13T01:05:28.436Z,102096.88
2022-10-13T01:07:56.027Z,102107.06
2022-10-13T01:10:44.995Z,102110.84
2022-10-13T01:13:26.887Z,102112.34
2022-10-13T01:16:22.506Z,102086.50
2022-10-13T01:19:03.587Z,102100.91
2022-10-13T01:22:08.158Z,102105.75
2022-10-13T01:24:58.281Z,102089.94
2022-10-13T01:27:36.691Z,102097.66
2022-10-13T01:30:10.911Z,102093.88
2022-10-13T01:32:55.763Z,102085.75
2022-10-13T01:35:29.890Z,102081.09
2022-10-13T01:38:14.504Z,102067.50
2022-10-13T01:40:53.905Z,102075.94
2022-10-13T01:43:25.211Z,102058.75
2022-10-13T01:45:58.640Z,102081.88
2022-10-13T01:48:27.783Z,102077.50
2022-10-13T01:50:55.695Z,102083.22
2022-10-13T01:53:23.367Z,102074.56
2022-10-13T01:55:58.820Z,102083.22
2022-10-13T01:58:31.222Z,102088.38
2022-10-13T02:01:10.201Z,102064.66
2022-10-13T02:03:56.815Z,102042.25
2022-10-13T02:06:26.131Z,102064.34
2022-10-13T02:09:12.315Z,102029.09
2022-10-13T02:11:47.813Z,102030.09
2022-10-13T02:14:24.175Z,102027.38
2022-10-13T02:16:53.697Z,102031.75
2022-10-13T02:19:20.455Z,102037.13
2022-10-13T02:21:50.765Z,102041.25
2022-10-13T02:24:24.571Z,102045.22
2022-10-13T02:26:52.111Z,102046.16
2022-10-13T02:29:19.696Z,102041.84
2022-10-13T02:31:46.567Z,102048.09
2022-10-13T02:34:13.555Z,102043.84
2022-10-13T02:36:40.377Z,102042.97
2022-10-13T02:39:08.675Z,102028.72
2022-10-13T02:41:35.254Z,102026.13
2022-10-13T02:44:04.486Z,102020.63
2022-10-13T02:46:31.463Z,101991.38
2022-10-13T02:48:58.199Z,101981.53
2022-10-13T02:51:24.679Z,102020.56
2022-10-13T02:53:51.154Z,102021.69
2022-10-13T02:56:17.528Z,102003.41
2022-10-13T02:58:44.045Z,102007.28
2022-10-13T03:01:15.842Z,102007.38
2022-10-13T03:03:43.643Z,101992.88
2022-10-13T03:06:10.274Z,102003.94
2022-10-13T03:08:38.087Z,102004.03
2022-10-13T03:11:04.613Z,101997.03
2022-10-13T03:13:31.227Z,102008.41
2022-10-13T03:15:57.662Z,102008.34
2022-10-13T03:18:24.207Z,102000.63
2022-10-13T03:21:02.330Z,102012.75
2022-10-13T03:23:28.858Z,102009.16
2022-10-13T03:25:56.587Z,101977.19
2022-10-13T03:28:23.132Z,102003.03
2022-10-13T03:30:49.745Z,101989.78
2022-10-13T03:33:16.368Z,101983.59
2022-10-13T03:35:42.853Z,101988.56
2022-10-13T03:38:09.380Z,101972.09
2022-10-13T03:40:36.919Z,101978.19
2022-10-13T03:43:03.402Z,101981.47
2022-10-13T03:45:31.296Z,101985.03
2022-10-13T03:47:58.187Z,101967.50
2022-10-13T03:50:24.624Z,101976.16
2022-10-13T03:52:51.057Z,101962.09
2022-10-13T03:55:17.592Z,101981.13
2022-10-13T03:57:44.047Z,101977.47
2022-10-13T04:00:11.340Z,101970.53
2022-10-13T04:02:38.734Z,101958.44
2022-10-13T04:05:05.586Z,101965.22
2022-10-13T04:07:32.259Z,101973.66
2022-10-13T04:09:58.739Z,101950.22
2022-10-13T04:12:25.590Z,101963.09
2022-10-13T04:14:52.168Z,101969.13
2022-10-13T04:17:18.800Z,101966.22
2022-10-13T04:19:45.206Z,101960.28
2022-10-13T04:22:11.668Z,101959.97
2022-10-13T04:24:38.054Z,101962.78
2022-10-13T04:27:04.523Z,101961.78
2022-10-13T04:29:31.669Z,101952.25
2022-10-13T04:32:00.003Z,101941.78
2022-10-13T04:34:26.487Z,101960.06
2022-10-13T04:36:52.971Z,101950.53
2022-10-13T04:39:20.545Z,101945.38
2022-10-13T04:41:50.681Z,101946.16
2022-10-13T04:44:17.172Z,101941.88
2022-10-13T04:46:43.573Z,101938.28
2022-10-13T04:49:10.106Z,101940.84
2022-10-13T04:51:36.544Z,101931.09
2022-10-13T04:54:05.405Z,101949.69
2022-10-13T04:56:32.658Z,101947.25
2022-10-13T04:58:59.876Z,101935.88
2022-10-13T05:01:27.218Z,101954.91
2022-10-13T05:03:55.523Z,101947.56
2022-10-13T05:06:28.044Z,101953.66
2022-10-13T05:08:54.720Z,101949.19
2022-10-13T05:11:21.699Z,101952.63
2022-10-13T05:13:49.967Z,101941.94
2022-10-13T05:16:21.051Z,101946.13
2022-10-13T05:18:48.593Z,101933.03
2022-10-13T05:21:24.874Z,101944.09
2022-10-13T05:23:54.287Z,101948.47
2022-10-13T05:26:22.804Z,101951.56
2022-10-13T05:28:50.107Z,101949.94
2022-10-13T05:31:22.056Z,101944.63
2022-10-13T05:33:49.935Z,101948.75
2022-10-13T05:36:22.399Z,101939.31
2022-10-13T05:38:56.615Z,101940.44
2022-10-13T05:41:25.025Z,101937.03
2022-10-13T05:43:55.394Z,101933.50
2022-10-13T05:46:21.881Z,101933.59
2022-10-13T05:48:50.751Z,101928.19
2022-10-13T05:51:22.500Z,101936.63
2022-10-13T05:53:57.701Z,101915.94
2022-10-13T05:56:27.223Z,101906.44
2022-10-13T05:58:59.420Z,101927.03
2022-10-13T06:01:30.419Z,101935.47
2022-10-13T06:04:01.685Z,101929.16
2022-10-13T06:06:31.436Z,101932.75
2022-10-13T06:08:59.174Z,101929.41
2022-10-13T06:11:25.779Z,101924.78
2022-10-13T06:13:52.238Z,101919.47
2022-10-13T06:16:20.207Z,101922.03
2022-10-13T06:18:46.986Z,101914.22
2022-10-13T06:21:13.575Z,101927.94
2022-10-13T06:23:40.137Z,101911.41
2022-10-13T06:26:07.957Z,101904.47
2022-10-13T06:28:35.845Z,101903.59
2022-10-13T06:31:04.956Z,101922.38
2022-10-13T06:33:31.436Z,101917.31
2022-10-13T06:36:02.428Z,101925.97
2022-10-13T06:38:29.080Z,101925.97
2022-10-13T06:40:59.751Z,101911.84
2022-10-13T06:43:33.357Z,101906.34
2022-10-13T06:46:05.445Z,101876.50
2022-10-13T06:48:32.042Z,101893.34
2022-10-13T06:51:03.863Z,101910.72
2022-10-13T06:53:30.730Z,101912.19
2022-10-13T06:56:01.848Z,101909.69
2022-10-13T06:58:28.759Z,101906.09
2022-10-13T07:00:55.692Z,101906.97
2022-10-13T07:03:22.492Z,101910.72
2022-10-13T07:05:48.960Z,101906.97
2022-10-13T07:08:15.805Z,101912.44
2022-10-13T07:10:43.069Z,101927.97
2022-10-13T07:13:09.687Z,101920.94
2022-10-13T07:15:41.870Z,101927.09
2022-10-13T07:18:08.375Z,101923.25
2022-10-13T07:20:35.210Z,101921.53
2022-10-13T07:23:02.118Z,101911.34
2022-10-13T07:25:28.752Z,101922.38
2022-10-13T07:27:55.191Z,101916.13
2022-10-13T07:30:21.871Z,101916.13
2022-10-13T07:32:48.669Z,101908.94
2022-10-13T07:35:15.534Z,101907.38
2022-10-13T07:37:42.035Z,101917.66
2022-10-13T07:40:09.119Z,101910.56
2022-10-13T07:42:35.540Z,101920.25
2022-10-13T07:45:01.998Z,101909.88
2022-10-13T07:47:29.061Z,101903.69
2022-10-13T07:49:58.665Z,101913.31
2022-10-13T07:52:26.646Z,101889.81
2022-10-13T07:54:53.900Z,101908.41
2022-10-13T07:57:20.395Z,101900.00
2022-10-13T07:59:47.075Z,101902.31
2022-10-13T08:02:13.877Z,101897.19
2022-10-13T08:04:40.306Z,101907.38
2022-10-13T08:07:07.073Z,101911.50
2022-10-13T08:09:34.231Z,101910.63
2022-10-13T08:12:02.116Z,101878.56
2022-10-13T08:14:29.780Z,101909.59
2022-10-13T08:16:57.243Z,101901.72
2022-10-13T08:19:26.370Z,101914.44
2022-10-13T08:21:58.092Z,101908.06
2022-10-13T08:24:26.421Z,101914.66
2022-10-13T08:26:52.931Z,101915.50
2022-10-13T08:29:22.567Z,101911.56
2022-10-13T08:31:51.105Z,101930.59
2022-10-13T08:34:17.755Z,101908.63
2022-10-13T08:36:44.215Z,101918.63
2022-10-13T08:39:11.137Z,101908.09
2022-10-13T08:41:40.519Z,101914.84
2022-10-13T08:47:40.118Z,101877.22
2022-10-13T08:50:25.474Z,101912.03
2022-10-13T08:53:02.250Z,101912.63
2022-10-13T08:55:41.243Z,101903.53
2022-10-13T08:58:29.164Z,101907.72
2022-10-13T09:00:58.728Z,101910.13
2022-10-13T09:03:28.273Z,101910.13
2022-10-13T09:06:13.354Z,101911.81
2022-10-13T09:08:48.746Z,101908.91
2022-10-13T09:11:15.161Z,101910.72
2022-10-13T09:13:41.681Z,101903.16
2022-10-13T09:16:08.188Z,101879.59
2022-10-13T09:18:35.289Z,101902.66
2022-10-13T09:21:19.088Z,101892.25
2022-10-13T09:23:45.690Z,101876.66
2022-10-13T09:26:19.949Z,101902.28
2022-10-13T09:28:46.501Z,101899.41
2022-10-13T09:31:30.513Z,101885.81
2022-10-13T09:34:02.914Z,101913.22
2022-10-13T09:36:31.289Z,101905.41
2022-10-13T09:39:15.496Z,101914.66
2022-10-13T09:41:43.783Z,101914.75
2022-10-13T09:44:27.699Z,101913.13
2022-10-13T09:46:59.332Z,101922.25
2022-10-13T09:49:28.594Z,101919.59
2022-10-13T09:52:01.388Z,101906.06
2022-10-13T09:54:33.549Z,101917.38
2022-10-13T09:57:05.658Z,101917.38
2022-10-13T09:59:39.823Z,101904.34
2022-10-13T10:02:19.493Z,101918.06
2022-10-13T10:04:49.697Z,101903.31
2022-10-13T10:07:22.133Z,101913.88
2022-10-13T10:09:53.023Z,101895.69
2022-10-13T10:12:27.646Z,101906.84
2022-10-13T10:14:54.372Z,101913.00
2022-10-13T10:17:33.512Z,101915.78
2022-10-13T10:20:37.461Z,101916.81
2022-10-13T10:23:06.706Z,101902.81
2022-10-13T10:25:52.931Z,101906.41
2022-10-13T10:28:34.497Z,101910.72
2022-10-13T10:31:13.766Z,101897.31
2022-10-13T10:33:59.882Z,101907.22
2022-10-13T10:36:54.338Z,101902.91
2022-10-13T10:39:26.588Z,101896.81
2022-10-13T10:42:25.651Z,101903.75
2022-10-13T10:44:55.489Z,101891.66
2022-10-13T10:47:28.606Z,101900.75
2022-10-13T10:50:05.007Z,101895.22
2022-10-13T10:52:55.988Z,101893.06
2022-10-13T10:55:26.659Z,101884.69
2022-10-13T10:57:58.465Z,101890.69
2022-10-13T11:00:25.177Z,101897.25
2022-10-13T11:03:14.826Z,101889.25
2022-10-13T11:06:00.006Z,101882.13
2022-10-13T11:08:47.844Z,101880.69
2022-10-13T11:11:24.688Z,101883.06
2022-10-13T11:13:59.464Z,101880.31
2022-10-13T11:16:30.729Z,101877.84
2022-10-13T11:19:28.217Z,101884.31
2022-10-13T11:22:00.703Z,101878.31
2022-10-13T11:24:46.146Z,101878.09
2022-10-13T11:27:15.445Z,101882.63
2022-10-13T11:29:49.119Z,101883.00
2022-10-13T11:32:28.170Z,101881.63
2022-10-13T11:35:06.598Z,101890.84
2022-10-13T11:38:07.318Z,101879.34
2022-10-13T11:41:05.569Z,101882.19
2022-10-13T11:43:32.002Z,101880.66
2022-10-13T11:46:20.613Z,101874.66
2022-10-13T11:49:05.721Z,101872.97
2022-10-13T11:51:41.253Z,101875.81
2022-10-13T11:54:21.616Z,101872.09
2022-10-13T11:56:51.512Z,101864.78
2022-10-13T11:59:29.141Z,101864.50
2022-10-13T12:01:56.839Z,101861.56
2022-10-13T12:04:25.362Z,101853.31
2022-10-13T12:06:59.296Z,101837.00
2022-10-13T12:09:27.638Z,101842.47
2022-10-13T12:12:04.109Z,101841.50
2022-10-13T12:14:32.827Z,101839.13
2022-10-13T12:17:01.128Z,101844.25
2022-10-13T12:19:30.514Z,101840.84
2022-10-13T12:22:00.300Z,101825.91
2022-10-13T12:24:29.495Z,101835.31
2022-10-13T12:26:56.708Z,101822.66
2022-10-13T12:29:30.246Z,101820.47
2022-10-13T12:32:00.012Z,101813.63
2022-10-13T12:34:33.297Z,101795.38
2022-10-13T12:37:01.325Z,101822.94
2022-10-13T12:39:31.849Z,101818.94
2022-10-13T12:42:00.566Z,101802.47
2022-10-13T12:44:30.206Z,101821.78
2022-10-13T12:46:59.266Z,101814.75
2022-10-13T12:49:27.016Z,101810.94
2022-10-13T12:52:17.620Z,101813.38
2022-10-13T12:54:59.243Z,101811.38
2022-10-13T12:57:38.557Z,101806.66
2022-10-13T13:00:22.069Z,101793.72
2022-10-13T13:02:54.868Z,101787.34
2022-10-13T13:05:39.716Z,101802.97
2022-10-13T13:08:29.727Z,101807.91
2022-10-13T13:11:01.360Z,101812.28
2022-10-13T13:13:28.894Z,101804.69
2022-10-13T13:16:14.358Z,101807.44
2022-10-13T13:18:42.408Z,101809.16
2022-10-13T13:21:10.935Z,101811.06
2022-10-13T13:23:37.424Z,101823.81
2022-10-13T13:26:21.113Z,101794.16
2022-10-13T13:28:49.939Z,101828.75
2022-10-13T13:31:19.299Z,101803.38
2022-10-13T13:33:46.611Z,101823.63
2022-10-13T13:36:20.684Z,101823.06
2022-10-13T13:38:47.857Z,101812.03
2022-10-13T13:41:15.572Z,101804.31
2022-10-13T13:43:42.081Z,101805.94
2022-10-13T13:46:19.484Z,101772.16
2022-10-13T13:48:48.368Z,101810.78
2022-10-13T13:51:14.980Z,101770.06
2022-10-13T13:53:41.619Z,101803.63
2022-10-13T13:56:16.488Z,101801.75
2022-10-13T13:58:44.075Z,101807.75
2022-10-13T14:01:11.762Z,101800.03
2022-10-13T14:03:38.628Z,101803.28
2022-10-13T14:06:05.561Z,101807.75
2022-10-13T14:08:34.093Z,101775.19
2022-10-13T14:11:00.672Z,101804.31
2022-10-13T14:13:27.276Z,101792.53
2022-10-13T14:15:58.179Z,101793.19
2022-10-13T14:18:25.300Z,101783.50
2022-10-13T14:20:51.854Z,101793.66
2022-10-13T14:23:18.724Z,101792.03
2022-10-13T14:25:50.039Z,101804.59
2022-10-13T14:28:18.510Z,101791.47
2022-10-13T14:30:45.173Z,101786.53
2022-10-13T14:33:14.040Z,101796.91
2022-10-13T14:35:40.430Z,101791.66
2022-10-13T14:38:07.073Z,101784.88
2022-10-13T14:40:33.933Z,101789.94
2022-10-13T14:43:00.365Z,101787.63
2022-10-13T14:45:26.751Z,101768.91
2022-10-13T14:47:53.705Z,101778.41
2022-10-13T14:50:23.652Z,101767.59
2022-10-13T14:52:50.149Z,101788.13
2022-10-13T14:55:16.741Z,101775.94
2022-10-13T14:57:43.221Z,101777.09
2022-10-13T15:00:10.814Z,101779.84
2022-10-13T15:02:37.276Z,101780.03
2022-10-13T15:05:04.043Z,101771.09
2022-10-13T15:07:30.777Z,101781.06
2022-10-13T15:10:06.163Z,101774.13
2022-10-13T15:12:33.783Z,101769.78
2022-10-13T15:15:00.372Z,101747.63
2022-10-13T15:17:27.893Z,101772.72
2022-10-13T15:19:54.328Z,101762.44
2022-10-13T15:22:23.562Z,101778.03
2022-10-13T15:24:50.248Z,101779.84
2022-10-13T15:27:16.884Z,101780.88
2022-10-13T15:29:43.389Z,101771.09
2022-10-13T15:32:12.859Z,101772.03
2022-10-13T15:34:40.054Z,101778.22
2022-10-13T15:37:07.049Z,101778.22
2022-10-13T15:39:33.599Z,101773.09
2022-10-13T15:42:00.105Z,101772.91
2022-10-13T15:44:26.892Z,101758.25
2022-10-13T15:47:07.975Z,101771.09
2022-10-13T15:49:39.814Z,101757.78
2022-10-13T15:52:06.403Z,101748.19
2022-10-13T15:54:32.936Z,101764.44
2022-10-13T15:56:59.706Z,101775.84
2022-10-13T15:59:26.274Z,101777.75
2022-10-13T16:01:52.691Z,101760.44
2022-10-13T16:04:19.530Z,101758.63
2022-10-13T16:06:46.267Z,101773.94
2022-10-13T16:09:12.699Z,101760.75
2022-10-13T16:11:39.094Z,101758.94
2022-10-13T16:14:05.518Z,101755.50
2022-10-13T16:16:32.001Z,101752.00
2022-10-13T16:18:59.773Z,101751.41
2022-10-13T16:21:26.425Z,101738.50
2022-10-13T16:23:53.155Z,101737.75
2022-10-13T16:26:19.824Z,101743.53
2022-10-13T16:28:46.800Z,101744.69
2022-10-13T16:31:16.087Z,101744.59
2022-10-13T16:33:44.806Z,101742.19
2022-10-13T16:36:15.084Z,101747.25
2022-10-13T16:38:42.772Z,101747.25
2022-10-13T16:41:14.460Z,101747.34
2022-10-13T16:43:42.089Z,101731.19
2022-10-13T16:46:14.811Z,101735.53
2022-10-13T16:48:42.624Z,101748.06
2022-10-13T16:51:12.912Z,101756.91
2022-10-13T16:53:39.638Z,101746.75
2022-10-13T16:56:07.119Z,101755.66
2022-10-13T16:58:34.403Z,101753.38
2022-10-13T17:01:09.150Z,101764.84
2022-10-13T17:03:36.431Z,101769.75
2022-10-13T17:06:03.043Z,101785.50
2022-10-13T17:08:29.789Z,101777.91
2022-10-13T17:10:58.421Z,101784.75
2022-10-13T17:13:25.056Z,101778.84
2022-10-13T17:15:53.292Z,101779.97
2022-10-13T17:18:20.462Z,101794.97
2022-10-13T17:20:56.393Z,101778.31
2022-10-13T17:23:24.459Z,101803.13
2022-10-13T17:25:51.366Z,101803.13
2022-10-13T17:28:18.894Z,101801.50
2022-10-13T17:30:55.769Z,101806.81
2022-10-13T17:33:22.171Z,101818.41
2022-10-13T17:35:48.656Z,101802.81
2022-10-13T17:38:15.113Z,101816.59
2022-10-13T17:40:41.571Z,101814.03
2022-10-13T17:43:08.642Z,101820.03
2022-10-13T17:45:35.103Z,101812.22
2022-10-13T17:48:01.714Z,101817.19
2022-10-13T17:50:29.253Z,101821.81
2022-10-13T17:52:55.643Z,101825.50
2022-10-13T17:55:22.147Z,101834.78
2022-10-13T17:57:48.749Z,101826.03
2022-10-13T18:00:16.216Z,101828.25
2022-10-13T18:02:43.060Z,101816.09
2022-10-13T18:05:09.783Z,101828.34
2022-10-13T18:07:36.640Z,101833.84
2022-10-13T18:10:04.835Z,101821.84
2022-10-13T18:12:31.973Z,101829.81
2022-10-13T18:14:58.812Z,101828.38
2022-10-13T18:17:25.400Z,101830.00
2022-10-13T18:19:53.720Z,101828.72
2022-10-13T18:22:20.250Z,101828.03
2022-10-13T18:24:47.096Z,101804.25
2022-10-13T18:27:13.624Z,101818.06
2022-10-13T18:29:40.130Z,101832.13
2022-10-13T18:32:06.672Z,101842.91
2022-10-13T18:34:33.286Z,101843.00
2022-10-13T18:36:59.806Z,101838.00
2022-10-13T18:39:28.679Z,101834.41
2022-10-13T18:41:57.775Z,101840.91
2022-10-13T18:44:25.114Z,101845.78
2022-10-13T18:46:53.771Z,101845.16
2022-10-13T18:49:23.204Z,101834.38
2022-10-13T18:51:51.582Z,101847.44
2022-10-13T18:54:18.430Z,101852.06
2022-10-13T18:56:47.613Z,101846.81
2022-10-13T18:59:14.126Z,101822.41
2022-10-13T19:01:41.022Z,101854.41
2022-10-13T19:04:08.511Z,101844.34
2022-10-13T19:06:37.498Z,101854.53
2022-10-13T19:09:15.370Z,101831.78
2022-10-13T19:11:41.913Z,101850.66
2022-10-13T19:14:11.277Z,101850.03
2022-10-13T19:16:41.133Z,101825.34
2022-10-13T19:19:09.223Z,101855.50
2022-10-13T19:21:36.538Z,101851.47
2022-10-13T19:24:03.636Z,101851.69
2022-10-13T19:26:32.655Z,101844.38
2022-10-13T19:29:03.376Z,101849.19
2022-10-13T19:31:32.826Z,101851.78
2022-10-13T19:34:00.153Z,101849.19
2022-10-13T19:36:32.408Z,101859.25
2022-10-13T19:38:59.912Z,101853.19
2022-10-13T19:41:28.377Z,101840.06
2022-10-13T19:43:55.595Z,101850.72
2022-10-13T19:46:22.466Z,101855.31
2022-10-13T19:48:49.001Z,101862.41
2022-10-13T19:51:18.813Z,101853.75
2022-10-13T19:53:45.415Z,101857.50
2022-10-13T19:56:23.963Z,101865.34
2022-10-13T19:58:51.452Z,101861.22
2022-10-13T20:01:19.818Z,101869.16
2022-10-13T20:03:47.080Z,101859.84
2022-10-13T20:06:14.249Z,101869.31
2022-10-13T20:08:40.968Z,101872.84
2022-10-13T20:11:13.293Z,101874.66
2022-10-13T20:13:39.965Z,101878.13
2022-10-13T20:16:13.486Z,101881.91
2022-10-13T20:18:41.271Z,101878.25
2022-10-13T20:21:12.536Z,101875.09
2022-10-13T20:23:40.899Z,101884.00
2022-10-13T20:26:11.979Z,101879.84
2022-10-13T20:28:43.981Z,101880.63
2022-10-13T20:31:12.740Z,101882.19
2022-10-13T20:33:40.326Z,101882.41
2022-10-13T20:36:09.554Z,101879.84
2022-10-13T20:38:36.194Z,101877.34
2022-10-13T20:41:20.665Z,101881.63
2022-10-13T20:43:48.198Z,101885.38
2022-10-13T20:46:16.759Z,101880.28
2022-10-13T20:51:30.659Z,101884.09
2022-10-13T20:53:57.374Z,101886.72
2022-10-13T20:56:26.196Z,101880.66
2022-10-13T20:58:53.172Z,101879.94
2022-10-13T21:01:21.892Z,101876.72
2022-10-13T21:03:53.003Z,101884.59
2022-10-13T21:06:19.673Z,101882.28
2022-10-13T21:08:47.187Z,101883.28
2022-10-13T21:11:15.693Z,101866.31
2022-10-13T21:13:43.605Z,101875.97
2022-10-13T21:16:13.376Z,101862.38
2022-10-13T21:18:40.181Z,101890.84
2022-10-13T21:21:11.151Z,101887.56
2022-10-13T21:23:38.120Z,101892.78
2022-10-13T21:26:07.038Z,101889.19
2022-10-13T21:28:36.374Z,101888.47
2022-10-13T21:31:11.314Z,101873.59
2022-10-13T21:33:39.042Z,101889.00
2022-10-13T21:36:12.937Z,101878.63
2022-10-13T21:38:39.983Z,101878.25
2022-10-13T21:41:08.055Z,101868.59
2022-10-13T21:43:34.602Z,101880.63
2022-10-13T21:46:13.068Z,101876.19
2022-10-13T21:48:39.955Z,101843.56
2022-10-13T21:51:21.237Z,101869.25
2022-10-13T21:53:55.549Z,101880.34
2022-10-13T21:56:22.512Z,101868.84
2022-10-13T21:58:49.367Z,101860.38
2022-10-13T22:01:17.308Z,101870.56
2022-10-13T22:03:47.015Z,101823.91
2022-10-13T22:06:19.079Z,101856.66
2022-10-13T22:08:49.688Z,101858.19
2022-10-13T22:11:17.331Z,101858.25
2022-10-13T22:13:44.053Z,101857.34
2022-10-13T22:16:17.560Z,101859.91
2022-10-13T22:18:44.045Z,101856.41
2022-10-13T22:21:14.283Z,101852.16
2022-10-13T22:23:41.943Z,101857.44
2022-10-13T22:26:08.700Z,101837.56
2022-10-13T22:28:37.435Z,101858.50
2022-10-13T22:31:10.077Z,101850.66
2022-10-13T22:33:37.793Z,101857.72
2022-10-13T22:36:08.269Z,101846.50
2022-10-13T22:38:35.306Z,101862.25
2022-10-13T22:41:03.240Z,101851.00
2022-10-13T22:43:29.723Z,101854.44
2022-10-13T22:45:56.390Z,101818.66
2022-10-13T22:48:22.947Z,101860.09
2022-10-13T22:50:50.966Z,101860.09
2022-10-13T22:53:17.515Z,101854.09
2022-10-13T22:55:43.956Z,101853.16
2022-10-13T22:58:10.483Z,101845.22
2022-10-13T23:00:38.148Z,101843.50
2022-10-13T23:03:05.714Z,101849.66
2022-10-13T23:05:32.517Z,101839.13
2022-10-13T23:07:58.964Z,101842.72
2022-10-13T23:10:25.540Z,101831.47
2022-10-13T23:12:52.091Z,101841.84
2022-10-13T23:15:18.664Z,101846.22
2022-10-13T23:17:45.096Z,101848.06
2022-10-13T23:20:11.748Z,101831.63
2022-10-13T23:22:38.348Z,101842.06
2022-10-13T23:25:05.092Z,101837.56
2022-10-13T23:27:31.521Z,101825.31
2022-10-13T23:29:57.998Z,101831.56
2022-10-13T23:32:24.435Z,101823.69
2022-10-13T23:34:50.847Z,101825.47
2022-10-13T23:37:17.720Z,101822.25
2022-10-13T23:39:44.142Z,101822.38
2022-10-13T23:42:10.663Z,101817.94
2022-10-13T23:44:37.195Z,101820.59
2022-10-13T23:47:03.720Z,101814.59
2022-10-13T23:49:30.152Z,101817.25
2022-10-13T23:51:56.747Z,101816.66
2022-10-13T23:54:23.186Z,101820.22
2022-10-13T23:56:49.760Z,101809.16
2022-10-13T23:59:16.317Z,101818.50
